Terminal Aerodrome Forecast
Issued by NWS

Home | Current Version | Previous Version | Text Only | Print | Product List | Glossary On
Versions: 1 2 3 4 5 6 7 8 9 10 11 12 13 14 15 16 17 18 19 20
000
FTUS46 KOTX 190520
TAFSFF
TAF
KSFF 190520Z 1906/2006 VRB02KT P6SM BKN200
     FM191800 20010G15KT P6SM SCT120 BKN200
     FM200400 21008KT 6SM -RA OVC060 WS020/21040KT=

USA.gov is the U.S. government's official web portal to all federal, state and local government web resources and services.